Time;durP1;ratioP1;P1;durP2;ratioP2;P2;SDS_P1;SDS_P2;PMS_P1;PMS_P2;Temp;Humidity;BMP_temperature;BMP_pressure;BME280_temperature;BME280_humidity;BME280_pressure;Samples;Min_cycle;Max_cycle;Signal;HPM_P1;HPM_P2
2021/04/25 00:00:59;;;;;;;114.10;53.25;;;9.10;85.00;;;;;;5115978;28;20069;-69
2021/04/25 00:03:25;;;;;;;106.50;50.78;;;9.10;84.20;;;;;;5115850;28;20509;-70
2021/04/25 00:05:51;;;;;;;97.70;47.92;;;9.00;83.60;;;;;;5115993;28;20024;-70
2021/04/25 00:08:17;;;;;;;93.28;47.00;;;9.00;83.40;;;;;;5114513;28;20088;-71
2021/04/25 00:10:43;;;;;;;96.80;48.10;;;8.90;84.20;;;;;;5115552;28;20028;-72
2021/04/25 00:13:10;;;;;;;95.28;47.22;;;8.80;84.90;;;;;;5116057;28;20032;-71
2021/04/25 00:15:36;;;;;;;84.88;45.05;;;8.70;85.60;;;;;;5114468;28;20024;-70
2021/04/25 00:18:02;;;;;;;94.47;48.10;;;8.60;85.30;;;;;;5115704;28;20027;-69
2021/04/25 00:20:28;;;;;;;88.15;45.60;;;8.60;85.20;;;;;;5115695;28;20110;-70
2021/04/25 00:22:54;;;;;;;108.45;52.38;;;8.60;85.60;;;;;;5115537;28;20034;-71
2021/04/25 00:25:20;;;;;;;104.95;54.25;;;8.60;85.60;;;;;;5121528;27;20043;-70
2021/04/25 00:27:47;;;;;;;102.25;51.40;;;8.60;86.50;;;;;;5136086;27;20027;-70
2021/04/25 00:30:19;;;;;;;99.88;52.53;;;8.60;86.40;;;;;;5117179;27;20028;-70
2021/04/25 00:32:45;;;;;;;105.80;51.88;;;8.60;85.90;;;;;;5117556;27;20360;-71
2021/04/25 00:35:12;;;;;;;105.63;51.78;;;8.60;86.70;;;;;;5117259;27;20023;-70
2021/04/25 00:37:38;;;;;;;106.07;50.35;;;8.60;86.00;;;;;;5117352;27;20027;-70
2021/04/25 00:40:25;;;;;;;103.95;50.30;;;8.70;85.80;;;;;;5135843;27;20777;-70
2021/04/25 00:42:51;;;;;;;97.78;50.28;;;8.70;85.80;;;;;;5115395;27;20042;-70
2021/04/25 00:45:19;;;;;;;100.28;48.67;;;8.70;86.20;;;;;;5117381;27;20027;-70
2021/04/25 00:47:47;;;;;;;89.22;45.72;;;8.60;86.40;;;;;;5135698;27;20065;-71
2021/04/25 00:50:16;;;;;;;93.32;44.78;;;8.70;85.80;;;;;;5135675;27;20015;-70
2021/04/25 00:52:46;;;;;;;81.13;40.97;;;8.70;85.20;;;;;;5117072;27;20027;-70
2021/04/25 00:55:14;;;;;;;82.63;39.97;;;8.70;84.80;;;;;;5117088;27;20051;-70
2021/04/25 00:57:41;;;;;;;71.43;38.83;;;8.60;85.00;;;;;;5135475;27;20023;-70
2021/04/25 01:00:09;;;;;;;71.88;37.00;;;8.70;84.80;;;;;;5135483;27;20027;-71
2021/04/25 01:02:36;;;;;;;64.32;33.58;;;8.70;85.00;;;;;;5135321;27;20039;-71
2021/04/25 01:05:04;;;;;;;69.30;34.22;;;8.60;84.40;;;;;;5135331;27;20068;-70
2021/04/25 01:07:30;;;;;;;61.47;32.47;;;8.60;84.70;;;;;;5134204;27;20023;-71
2021/04/25 01:09:56;;;;;;;62.90;32.38;;;8.60;84.70;;;;;;5116745;27;20815;-71
2021/04/25 01:12:22;;;;;;;51.45;28.27;;;8.60;84.70;;;;;;5135549;27;20378;-70
2021/04/25 01:14:48;;;;;;;58.20;32.65;;;8.50;83.90;;;;;;5135162;27;20023;-69
2021/04/25 01:17:14;;;;;;;59.88;32.33;;;8.50;84.90;;;;;;5135123;27;20083;-70
2021/04/25 01:19:40;;;;;;;71.53;37.28;;;8.40;86.30;;;;;;5134810;27;20023;-69
2021/04/25 01:22:06;;;;;;;73.32;39.33;;;8.30;88.10;;;;;;5134933;27;20156;-68
2021/04/25 01:24:32;;;;;;;76.03;40.78;;;8.30;89.30;;;;;;5116528;27;20034;-68
2021/04/25 01:26:58;;;;;;;75.43;39.10;;;8.20;89.10;;;;;;5116191;27;20047;-69
2021/04/25 01:29:24;;;;;;;68.15;38.40;;;8.20;90.10;;;;;;5134563;27;20387;-69
2021/04/25 01:31:50;;;;;;;84.50;40.50;;;8.10;88.90;;;;;;5116339;27;20031;-69
2021/04/25 01:34:16;;;;;;;80.00;38.08;;;8.10;89.60;;;;;;5135044;27;20455;-71
2021/04/25 01:36:42;;;;;;;74.68;33.45;;;8.00;90.30;;;;;;5134474;27;20034;-71
2021/04/25 01:39:08;;;;;;;62.83;30.52;;;8.00;90.10;;;;;;5134745;27;20110;-71
2021/04/25 01:41:34;;;;;;;64.35;29.15;;;8.00;89.90;;;;;;5134838;27;20390;-72
2021/04/25 01:44:01;;;;;;;59.72;25.90;;;8.00;90.30;;;;;;5116111;27;20019;-71
2021/04/25 01:46:27;;;;;;;50.13;24.77;;;8.00;91.20;;;;;;5116169;27;20027;-71
2021/04/25 01:48:53;;;;;;;48.70;23.27;;;8.00;93.30;;;;;;5116349;27;20370;-72
2021/04/25 01:51:19;;;;;;;53.50;22.70;;;8.00;93.60;;;;;;5134310;27;20025;-72
2021/04/25 01:53:45;;;;;;;42.20;23.73;;;;;;;;;;5134152;27;20031;-72
2021/04/25 01:56:11;;;;;;;43.72;23.45;;;7.80;93.70;;;;;;5134487;27;20023;-71
2021/04/25 01:58:37;;;;;;;49.30;24.27;;;7.70;94.30;;;;;;5134398;27;20364;-71
2021/04/25 02:01:04;;;;;;;42.72;23.83;;;7.70;94.60;;;;;;5134289;27;20019;-71
2021/04/25 02:03:30;;;;;;;51.42;25.20;;;7.60;95.00;;;;;;5134325;27;20030;-71
2021/04/25 02:05:56;;;;;;;48.63;23.33;;;7.60;95.20;;;;;;5115901;27;20031;-71
2021/04/25 02:08:21;;;;;;;51.78;25.95;;;7.70;94.80;;;;;;5134254;27;20023;-71
2021/04/25 02:10:49;;;;;;;43.67;23.33;;;7.60;95.30;;;;;;5133893;27;20418;-71
2021/04/25 02:13:16;;;;;;;47.63;25.73;;;7.60;95.60;;;;;;5115799;27;20027;-71
2021/04/25 02:15:45;;;;;;;49.35;24.50;;;7.50;95.90;;;;;;5134197;27;20452;-71
2021/04/25 02:18:11;;;;;;;59.00;25.10;;;7.60;95.40;;;;;;5134113;27;20029;-71
2021/04/25 02:20:38;;;;;;;42.65;23.85;;;7.50;95.80;;;;;;5133841;27;20459;-72
2021/04/25 02:23:04;;;;;;;46.65;24.98;;;7.50;95.60;;;;;;5115539;28;20493;-72
2021/04/25 02:25:30;;;;;;;49.58;23.92;;;7.50;95.20;;;;;;5115290;28;20071;-71
2021/04/25 02:27:56;;;;;;;43.80;22.23;;;7.50;95.50;;;;;;5115295;28;20023;-72
2021/04/25 02:30:30;;;;;;;43.85;23.40;;;7.50;95.70;;;;;;5134051;28;20027;-71
2021/04/25 02:32:58;;;;;;;39.63;23.50;;;7.50;95.30;;;;;;5134018;28;20031;-71
2021/04/25 02:35:25;;;;;;;46.42;24.77;;;7.50;95.30;;;;;;5134033;28;20037;-71
2021/04/25 02:37:52;;;;;;;50.05;24.58;;;7.40;95.30;;;;;;5133950;28;20033;-71
2021/04/25 02:40:21;;;;;;;47.15;23.00;;;7.30;95.10;;;;;;5115368;28;20080;-70
2021/04/25 02:42:48;;;;;;;48.28;26.00;;;7.30;96.10;;;;;;5115388;28;20511;-71
2021/04/25 02:45:15;;;;;;;61.25;31.15;;;7.30;96.10;;;;;;5133939;28;20031;-70
2021/04/25 02:47:44;;;;;;;61.67;30.95;;;7.10;95.60;;;;;;5133844;28;20069;-71
2021/04/25 02:50:10;;;;;;;49.15;28.50;;;7.00;96.20;;;;;;5133821;28;20034;-71
2021/04/25 02:52:36;;;;;;;55.70;28.20;;;6.90;96.70;;;;;;5133791;28;20079;-72
2021/04/25 02:55:03;;;;;;;48.15;25.95;;;6.90;97.10;;;;;;5133812;28;20035;-70
2021/04/25 02:57:29;;;;;;;53.65;29.05;;;6.90;96.90;;;;;;5133773;28;20057;-72
2021/04/25 02:59:55;;;;;;;52.33;25.83;;;6.90;96.00;;;;;;5115251;28;20648;-72
2021/04/25 03:02:20;;;;;;;49.95;28.73;;;6.90;96.00;;;;;;5133610;28;20068;-71
2021/04/25 03:04:46;;;;;;;58.75;29.95;;;6.90;96.00;;;;;;5115094;28;20367;-72
2021/04/25 03:07:12;;;;;;;52.95;27.95;;;6.80;96.30;;;;;;5115237;28;20034;-70
2021/04/25 03:09:38;;;;;;;68.70;30.02;;;6.70;97.30;;;;;;5133629;28;20030;-73
2021/04/25 03:12:04;;;;;;;74.65;35.83;;;6.60;97.20;;;;;;5133896;28;20481;-72
2021/04/25 03:14:30;;;;;;;77.47;36.42;;;6.60;96.90;;;;;;5133462;28;20023;-72
2021/04/25 03:16:56;;;;;;;71.28;35.58;;;6.50;97.40;;;;;;5133624;28;20494;-72
2021/04/25 03:19:22;;;;;;;45.88;24.70;;;6.40;97.30;;;;;;5133224;28;20175;-71
2021/04/25 03:21:48;;;;;;;51.35;25.85;;;6.50;95.50;;;;;;5115011;28;20027;-71
2021/04/25 03:24:14;;;;;;;45.95;24.67;;;6.40;95.20;;;;;;5114728;28;20498;-71
2021/04/25 03:26:40;;;;;;;53.40;26.02;;;6.40;95.00;;;;;;5114850;28;20047;-71
2021/04/25 03:29:07;;;;;;;58.38;25.20;;;6.40;94.50;;;;;;5133473;28;20076;-71
2021/04/25 03:31:33;;;;;;;44.70;23.85;;;6.40;94.30;;;;;;5134775;27;20417;-71
2021/04/25 03:33:59;;;;;;;41.97;23.27;;;6.40;94.20;;;;;;5137175;27;20030;-72
2021/04/25 03:36:25;;;;;;;42.20;22.13;;;6.30;93.90;;;;;;5137158;27;20030;-72
2021/04/25 03:38:51;;;;;;;42.10;21.92;;;6.30;94.10;;;;;;5137102;27;20030;-69
2021/04/25 03:41:17;;;;;;;43.45;21.70;;;6.30;94.50;;;;;;5136946;27;20058;-70
2021/04/25 03:43:43;;;;;;;56.65;26.02;;;6.20;95.10;;;;;;5136973;27;20051;-72
2021/04/25 03:46:09;;;;;;;61.30;25.60;;;6.20;95.30;;;;;;5118461;27;20104;-70
2021/04/25 03:48:35;;;;;;;57.33;28.25;;;6.20;95.30;;;;;;5118413;27;20019;-70
2021/04/25 03:51:01;;;;;;;222.98;36.25;;;6.10;95.50;;;;;;5137120;27;20027;-70
2021/04/25 03:53:27;;;;;;;48.40;25.42;;;6.10;96.10;;;;;;5118349;27;20038;-70
2021/04/25 03:55:52;;;;;;;49.50;25.73;;;6.00;96.00;;;;;;5118320;27;20031;-70
2021/04/25 03:58:18;;;;;;;53.03;26.15;;;6.00;96.00;;;;;;5136936;27;20071;-70
2021/04/25 04:00:44;;;;;;;43.35;25.55;;;6.00;96.30;;;;;;5136721;27;20672;-71
2021/04/25 04:03:10;;;;;;;51.30;25.02;;;6.10;96.20;;;;;;5136561;27;20081;-69
2021/04/25 04:05:36;;;;;;;52.00;25.52;;;6.10;96.10;;;;;;5136537;27;20083;-71
2021/04/25 04:08:02;;;;;;;54.47;24.67;;;6.10;96.00;;;;;;5136480;27;20072;-69
2021/04/25 04:10:27;;;;;;;46.67;24.10;;;6.10;96.10;;;;;;5136187;27;20388;-71
2021/04/25 04:12:53;;;;;;;60.90;25.88;;;6.10;95.90;;;;;;5117933;27;20030;-70
2021/04/25 04:15:19;;;;;;;52.17;26.25;;;6.20;95.90;;;;;;5136404;27;20026;-71
2021/04/25 04:17:45;;;;;;;52.10;24.55;;;6.30;96.00;;;;;;5136337;27;20041;-70
2021/04/25 04:20:12;;;;;;;57.53;25.25;;;6.30;96.10;;;;;;5136245;27;20027;-69
2021/04/25 04:22:38;;;;;;;52.80;26.58;;;6.40;96.40;;;;;;5117747;27;20035;-71
2021/04/25 04:25:05;;;;;;;58.45;27.42;;;6.30;96.70;;;;;;5117001;27;20491;-69
2021/04/25 04:27:31;;;;;;;52.30;26.33;;;6.40;97.10;;;;;;5136183;27;20063;-69
2021/04/25 04:29:56;;;;;;;49.15;25.45;;;6.40;96.70;;;;;;5117627;27;20035;-72
2021/04/25 04:32:22;;;;;;;44.25;24.15;;;6.40;96.80;;;;;;5117538;27;20080;-71
2021/04/25 04:34:48;;;;;;;42.45;25.15;;;6.40;96.60;;;;;;5117433;27;20029;-71
2021/04/25 04:37:14;;;;;;;53.00;25.33;;;6.30;96.10;;;;;;5135990;27;20027;-71
2021/04/25 04:39:40;;;;;;;42.55;24.17;;;6.40;96.90;;;;;;5117393;27;20027;-70
2021/04/25 04:42:06;;;;;;;44.80;23.83;;;6.60;96.40;;;;;;5117109;27;20027;-69
2021/04/25 04:44:32;;;;;;;50.58;26.27;;;6.60;96.40;;;;;;5136015;27;20035;-69
2021/04/25 04:46:58;;;;;;;50.25;26.92;;;6.70;96.20;;;;;;5135556;27;20489;-69
2021/04/25 04:49:23;;;;;;;61.78;28.95;;;6.80;95.90;;;;;;5117210;27;20464;-70
2021/04/25 04:51:49;;;;;;;61.58;28.40;;;6.90;95.90;;;;;;5135615;27;20077;-70
2021/04/25 04:54:15;;;;;;;49.08;25.48;;;6.90;96.10;;;;;;5117003;27;20027;-69
2021/04/25 04:56:41;;;;;;;52.45;27.17;;;6.90;96.30;;;;;;5116704;27;20106;-70
2021/04/25 04:59:07;;;;;;;60.67;33.47;;;6.90;96.00;;;;;;5116243;27;20023;-70
2021/04/25 05:01:34;;;;;;;54.88;30.35;;;7.00;95.70;;;;;;5134526;27;20451;-71
2021/04/25 05:04:00;;;;;;;60.05;28.95;;;7.20;95.80;;;;;;5134832;27;20031;-71
2021/04/25 05:06:26;;;;;;;55.65;27.70;;;7.30;95.70;;;;;;5134806;27;20024;-71
2021/04/25 05:08:51;;;;;;;60.35;29.35;;;7.40;95.80;;;;;;5134786;27;20027;-70
2021/04/25 05:11:18;;;;;;;51.25;27.52;;;7.40;95.80;;;;;;5135125;27;20040;-70
2021/04/25 05:13:44;;;;;;;55.00;27.83;;;7.50;95.40;;;;;;5135175;27;20032;-70
2021/04/25 05:16:09;;;;;;;48.55;27.88;;;7.60;95.00;;;;;;5135112;27;20080;-69
2021/04/25 05:18:38;;;;;;;51.00;29.95;;;7.70;94.80;;;;;;5135141;27;20031;-69
2021/04/25 05:21:05;;;;;;;69.82;34.92;;;7.70;94.90;;;;;;5116559;27;20543;-71
2021/04/25 05:23:31;;;;;;;63.53;32.78;;;7.70;94.70;;;;;;5134999;27;20044;-71
2021/04/25 05:25:57;;;;;;;60.00;32.22;;;7.80;94.80;;;;;;5134510;27;20051;-70
2021/04/25 05:28:23;;;;;;;84.35;35.05;;;7.70;94.80;;;;;;5134833;27;20034;-69
2021/04/25 05:30:49;;;;;;;65.80;33.70;;;7.80;95.00;;;;;;5134890;27;20027;-70
2021/04/25 05:33:15;;;;;;;71.72;34.13;;;7.90;94.90;;;;;;5134812;27;20494;-70
2021/04/25 05:35:41;;;;;;;60.10;31.92;;;8.00;94.70;;;;;;5134429;27;20023;-71
2021/04/25 05:38:06;;;;;;;62.13;31.85;;;8.10;95.10;;;;;;5134808;27;20024;-70
2021/04/25 05:40:32;;;;;;;66.80;32.33;;;8.20;95.10;;;;;;5134965;27;20031;-70
2021/04/25 05:42:58;;;;;;;40.35;23.23;;;8.40;95.10;;;;;;5134584;27;20070;-70
2021/04/25 05:45:24;;;;;;;40.15;21.13;;;;;;;;;;5115799;27;20034;-70
2021/04/25 05:47:53;;;;;;;42.22;22.30;;;8.70;90.10;;;;;;5134656;27;20024;-70
2021/04/25 05:50:21;;;;;;;46.40;22.05;;;8.90;91.50;;;;;;5115948;27;20115;-70
2021/04/25 05:52:47;;;;;;;36.90;21.73;;;9.00;91.50;;;;;;5116072;27;20059;-71
2021/04/25 05:55:14;;;;;;;42.45;22.27;;;9.10;90.30;;;;;;5133949;27;20402;-71
2021/04/25 05:57:40;;;;;;;39.85;20.70;;;9.20;88.10;;;;;;5115947;27;20110;-71
2021/04/25 06:00:08;;;;;;;41.05;24.75;;;9.30;88.80;;;;;;5134363;27;20023;-71
2021/04/25 06:02:34;;;;;;;43.42;24.25;;;9.50;90.90;;;;;;5134223;27;20043;-70
2021/04/25 06:05:00;;;;;;;41.05;24.20;;;9.60;89.90;;;;;;5134307;27;20526;-71
2021/04/25 06:07:26;;;;;;;46.88;27.20;;;9.70;86.90;;;;;;5115855;27;20133;-73
2021/04/25 06:09:51;;;;;;;54.15;26.05;;;9.80;90.60;;;;;;5134139;27;20507;-72
2021/04/25 06:12:17;;;;;;;41.92;23.95;;;9.90;89.60;;;;;;5134130;27;20035;-71
2021/04/25 06:14:46;;;;;;;40.63;23.50;;;10.00;86.60;;;;;;5134183;27;20031;-72
2021/04/25 06:17:12;;;;;;;43.38;22.73;;;10.10;85.60;;;;;;5115774;28;20023;-70
2021/04/25 06:19:39;;;;;;;43.03;22.42;;;;;;;;;;5134102;27;20501;-71
2021/04/25 06:22:05;;;;;;;44.92;25.30;;;10.40;86.90;;;;;;5115588;28;20469;-70
2021/04/25 06:24:31;;;;;;;46.25;25.00;;;10.50;85.60;;;;;;5115321;28;20080;-72
2021/04/25 06:26:58;;;;;;;42.97;25.23;;;10.60;87.50;;;;;;5133591;28;20043;-72
2021/04/25 06:29:24;;;;;;;44.15;23.02;;;10.70;86.00;;;;;;5115451;28;20026;-72
2021/04/25 06:31:49;;;;;;;50.85;23.58;;;10.90;85.10;;;;;;5115460;28;20027;-71
2021/04/25 06:34:15;;;;;;;36.97;20.60;;;11.00;87.10;;;;;;5115422;28;20491;-71
2021/04/25 06:36:43;;;;;;;39.45;21.30;;;11.20;86.20;;;;;;5133783;28;20027;-71
2021/04/25 06:39:10;;;;;;;36.40;21.23;;;11.20;83.90;;;;;;5115645;28;20367;-71
2021/04/25 06:41:37;;;;;;;37.17;21.67;;;11.40;82.60;;;;;;5133812;28;20042;-72
2021/04/25 06:44:04;;;;;;;39.05;21.00;;;11.50;82.70;;;;;;5133881;28;20027;-72
2021/04/25 06:46:30;;;;;;;34.70;19.75;;;11.70;85.10;;;;;;5115280;28;20023;-72
2021/04/25 06:48:56;;;;;;;39.17;19.42;;;11.80;81.10;;;;;;5115383;28;20079;-73
2021/04/25 06:51:23;;;;;;;31.50;18.55;;;12.00;76.60;;;;;;5133818;28;20055;-72
2021/04/25 06:53:49;;;;;;;27.05;14.45;;;12.10;77.50;;;;;;5133781;28;20046;-72
2021/04/25 06:56:15;;;;;;;31.70;14.13;;;12.80;97.90;;;;;;5115258;28;20110;-70
2021/04/25 06:58:41;;;;;;;24.92;13.75;;;13.40;99.90;;;;;;5133789;28;20026;-70
2021/04/25 07:01:08;;;;;;;33.90;16.83;;;13.90;98.80;;;;;;5133617;28;20027;-72
2021/04/25 07:03:34;;;;;;;38.55;19.77;;;14.10;93.20;;;;;;5133623;28;20071;-72
2021/04/25 07:06:00;;;;;;;36.97;19.70;;;13.80;73.70;;;;;;5134451;27;20065;-72
2021/04/25 07:08:26;;;;;;;39.50;20.42;;;13.80;73.80;;;;;;5137716;27;20054;-71
2021/04/25 07:10:52;;;;;;;38.22;20.45;;;13.80;73.60;;;;;;5137629;27;20031;-71
2021/04/25 07:13:19;;;;;;;52.45;22.48;;;13.80;70.40;;;;;;5137600;27;20027;-71
2021/04/25 07:15:45;;;;;;;40.35;22.20;;;13.80;72.30;;;;;;5119122;27;20023;-72
2021/04/25 07:18:11;;;;;;;34.75;20.73;;;14.00;72.30;;;;;;5137202;27;20016;-72
2021/04/25 07:20:38;;;;;;;40.60;21.08;;;14.10;68.50;;;;;;5118969;27;20030;-72
2021/04/25 07:23:04;;;;;;;36.75;18.40;;;14.20;71.30;;;;;;5137367;27;20031;-71
2021/04/25 07:25:30;;;;;;;30.95;16.80;;;14.30;70.50;;;;;;5134364;27;20110;-69
2021/04/25 07:27:56;;;;;;;24.52;15.15;;;14.40;68.90;;;;;;5136937;27;20023;-72
2021/04/25 07:30:22;;;;;;;25.10;13.75;;;14.60;66.30;;;;;;5136951;27;20094;-70
2021/04/25 07:32:48;;;;;;;22.92;14.18;;;14.70;63.70;;;;;;5118411;27;20035;-71
2021/04/25 07:35:14;;;;;;;27.50;14.55;;;14.80;64.80;;;;;;5136624;27;20129;-73
2021/04/25 07:37:40;;;;;;;29.70;14.00;;;15.00;64.50;;;;;;5136934;27;20031;-71
2021/04/25 07:40:07;;;;;;;24.63;12.02;;;15.10;61.80;;;;;;5118491;27;20034;-71
2021/04/25 07:42:34;;;;;;;29.35;12.98;;;15.20;60.70;;;;;;5136633;27;20038;-71
2021/04/25 07:45:03;;;;;;;21.20;13.00;;;15.40;61.60;;;;;;5118221;27;20023;-72
2021/04/25 07:47:29;;;;;;;25.00;12.73;;;15.50;62.30;;;;;;5136301;27;20027;-71
2021/04/25 07:49:54;;;;;;;25.40;11.23;;;15.70;62.90;;;;;;5118264;27;20027;-71
2021/04/25 07:52:20;;;;;;;20.80;10.85;;;15.90;59.90;;;;;;5117917;27;20478;-71
2021/04/25 07:54:46;;;;;;;19.80;10.90;;;16.00;58.30;;;;;;5136652;27;20101;-71
2021/04/25 07:57:12;;;;;;;16.65;8.02;;;16.20;56.10;;;;;;5136504;27;20451;-71
2021/04/25 07:59:38;;;;;;;14.32;7.78;;;16.30;50.80;;;;;;5118114;27;20035;-70
2021/04/25 08:02:04;;;;;;;17.13;8.90;;;16.40;52.30;;;;;;5117934;27;20035;-72
2021/04/25 08:04:29;;;;;;;17.02;9.35;;;16.50;53.70;;;;;;5136402;27;20027;-73
2021/04/25 08:06:56;;;;;;;17.73;8.45;;;16.70;51.40;;;;;;5136403;27;20027;-71
2021/04/25 08:09:23;;;;;;;20.50;8.85;;;16.80;51.10;;;;;;5136092;27;20023;-71
2021/04/25 08:11:49;;;;;;;15.68;7.30;;;16.90;49.50;;;;;;5136239;27;20031;-71
2021/04/25 08:14:15;;;;;;;17.77;9.35;;;17.10;51.20;;;;;;5136323;27;20030;-71
2021/04/25 08:16:41;;;;;;;17.33;8.02;;;17.30;50.40;;;;;;5135680;27;20038;-70
2021/04/25 08:19:08;;;;;;;17.30;7.45;;;17.40;48.40;;;;;;5135795;27;20027;-72
2021/04/25 08:21:34;;;;;;;15.93;7.75;;;17.60;49.00;;;;;;5117505;27;20070;-71
2021/04/25 08:24:00;;;;;;;16.48;7.57;;;17.60;45.50;;;;;;5136195;27;20033;-71
2021/04/25 08:26:26;;;;;;;18.15;9.00;;;17.80;51.50;;;;;;5116965;27;20131;-71
2021/04/25 08:28:52;;;;;;;13.38;7.78;;;17.80;48.80;;;;;;5117683;27;20027;-71
2021/04/25 08:31:19;;;;;;;14.50;6.70;;;;;;;;;;5135966;27;20037;-71
2021/04/25 08:33:44;;;;;;;12.30;7.00;;;18.00;46.60;;;;;;5135957;27;20027;-71
2021/04/25 08:36:10;;;;;;;10.35;6.18;;;18.00;45.40;;;;;;5135955;27;20036;-72
2021/04/25 08:38:36;;;;;;;11.98;6.15;;;18.10;47.60;;;;;;5136273;27;20436;-71
2021/04/25 08:41:04;;;;;;;10.27;6.05;;;18.30;43.90;;;;;;5136094;27;20076;-70
2021/04/25 08:43:31;;;;;;;10.75;6.05;;;18.40;43.10;;;;;;5135737;27;20127;-70
2021/04/25 08:45:59;;;;;;;15.88;6.00;;;18.50;42.40;;;;;;5117180;27;20375;-71
2021/04/25 08:48:29;;;;;;;10.25;6.47;;;18.70;42.10;;;;;;5135758;27;20054;-70
2021/04/25 08:50:56;;;;;;;10.25;6.55;;;18.80;43.00;;;;;;5117096;27;20034;-70
2021/04/25 08:53:22;;;;;;;13.68;6.53;;;18.80;40.50;;;;;;5117133;27;20376;-71
2021/04/25 08:55:48;;;;;;;128.63;14.15;;;19.10;42.90;;;;;;5117108;27;20062;-71
2021/04/25 08:58:15;;;;;;;46.95;8.20;;;19.20;42.00;;;;;;5135535;27;20063;-70
2021/04/25 09:00:41;;;;;;;12.25;6.88;;;19.10;41.60;;;;;;5135511;27;20110;-70
2021/04/25 09:03:06;;;;;;;12.32;6.13;;;19.20;41.60;;;;;;5135394;27;20063;-70
2021/04/25 09:05:33;;;;;;;9.32;5.88;;;19.60;40.70;;;;;;5116950;27;20053;-71
2021/04/25 09:08:03;;;;;;;14.40;6.55;;;19.70;40.60;;;;;;5135313;27;20027;-71
2021/04/25 09:10:33;;;;;;;12.65;6.30;;;19.90;40.60;;;;;;5135051;27;20072;-71
2021/04/25 09:12:59;;;;;;;11.18;6.25;;;20.00;40.00;;;;;;5116763;27;20059;-70
2021/04/25 09:15:27;;;;;;;13.32;6.47;;;20.20;38.80;;;;;;5135148;27;20019;-71
2021/04/25 09:17:57;;;;;;;10.20;6.18;;;20.30;36.70;;;;;;5116766;27;20057;-71
2021/04/25 09:20:44;;;;;;;9.48;5.57;;;20.40;38.40;;;;;;5134687;27;20379;-70
2021/04/25 09:23:32;;;;;;;9.43;5.90;;;20.60;38.50;;;;;;5134673;27;20038;-71
2021/04/25 09:26:05;;;;;;;13.95;7.75;;;20.60;38.50;;;;;;5132429;27;20085;-70
2021/04/25 09:28:33;;;;;;;10.57;6.28;;;20.50;39.10;;;;;;5134090;27;20031;-70
2021/04/25 09:31:14;;;;;;;10.98;7.03;;;20.80;38.50;;;;;;5116425;27;20429;-70
2021/04/25 09:33:51;;;;;;;11.70;6.25;;;21.00;37.00;;;;;;5134862;27;20027;-71
2021/04/25 09:36:23;;;;;;;9.50;6.13;;;21.00;36.20;;;;;;5134656;27;20054;-70
2021/04/25 09:38:52;;;;;;;33.10;6.45;;;21.00;37.10;;;;;;5134770;27;20034;-72
2021/04/25 09:41:26;;;;;;;13.73;5.60;;;21.30;37.40;;;;;;5134294;27;20430;-72
2021/04/25 09:43:52;;;;;;;10.52;5.75;;;21.50;38.30;;;;;;5116157;27;20046;-71
2021/04/25 09:46:18;;;;;;;14.75;5.90;;;21.60;38.50;;;;;;5134564;27;20114;-70
2021/04/25 09:48:44;;;;;;;10.50;6.10;;;21.60;36.00;;;;;;5134613;27;20109;-71
2021/04/25 09:51:22;;;;;;;15.50;6.90;;;21.80;36.20;;;;;;5134573;27;20027;-72
2021/04/25 09:53:56;;;;;;;13.38;6.10;;;21.80;36.10;;;;;;5134503;27;20467;-72
2021/04/25 09:56:31;;;;;;;14.20;7.47;;;22.00;35.70;;;;;;5134338;27;20029;-72
2021/04/25 09:58:57;;;;;;;14.55;8.52;;;22.10;34.30;;;;;;5134441;27;20584;-71
2021/04/25 10:01:36;;;;;;;10.68;4.93;;;22.30;34.80;;;;;;5115862;27;20040;-72
2021/04/25 10:04:04;;;;;;;14.85;6.07;;;22.60;37.20;;;;;;5115929;27;20034;-71
2021/04/25 10:06:49;;;;;;;52.00;8.60;;;22.50;35.90;;;;;;5134242;27;20479;-72
2021/04/25 10:09:16;;;;;;;9.90;6.72;;;23.00;36.80;;;;;;5115779;27;20020;-70
2021/04/25 10:11:42;;;;;;;12.88;6.53;;;23.10;36.00;;;;;;5134219;27;20029;-70
2021/04/25 10:14:08;;;;;;;11.45;5.40;;;23.20;37.20;;;;;;5133795;27;20038;-71
2021/04/25 10:16:34;;;;;;;9.65;5.90;;;23.60;37.60;;;;;;5134086;27;20019;-72
2021/04/25 10:19:01;;;;;;;10.35;5.10;;;23.60;34.50;;;;;;5134045;27;20031;-71
2021/04/25 10:21:27;;;;;;;9.93;5.43;;;24.20;33.10;;;;;;5115552;28;20384;-71
2021/04/25 10:23:53;;;;;;;10.40;5.65;;;24.20;34.90;;;;;;5134315;27;20035;-71
2021/04/25 10:26:22;;;;;;;8.00;5.80;;;24.70;32.80;;;;;;5133418;27;20050;-71
2021/04/25 10:29:00;;;;;;;8.57;5.20;;;25.30;32.50;;;;;;5133662;28;20383;-71
2021/04/25 10:31:34;;;;;;;9.27;5.35;;;25.70;32.80;;;;;;5133563;28;20036;-71
2021/04/25 10:34:16;;;;;;;12.40;5.63;;;26.40;31.60;;;;;;5133944;28;20097;-70
2021/04/25 10:36:48;;;;;;;8.27;5.45;;;27.10;31.70;;;;;;5133973;28;20023;-69
2021/04/25 10:39:32;;;;;;;;;;;27.60;29.10;;;;;;5134318;28;20027;-69
2021/04/25 10:42:17;;;;;;;9.70;4.90;;;;;;;;;;5138029;27;19923;-71
2021/04/25 10:47:24;;;;;;;9.20;5.93;;;;;;;;;;5137821;27;20108;-69
2021/04/25 10:49:51;;;;;;;6.70;4.68;;;;;;;;;;5119541;27;20109;-71
2021/04/25 10:52:21;;;;;;;8.90;6.60;;;;;;;;;;5119457;27;20026;-71
2021/04/25 10:55:14;;;;;;;12.02;7.47;;;;;;;;;;5137857;27;20102;-70
2021/04/25 10:58:03;;;;;;;13.45;5.70;;;;;;;;;;5034008;28;20037;-71
2021/04/25 11:00:37;;;;;;;6.00;4.00;;;;;;;;;;5017488;28;20116;-71
2021/04/25 11:03:06;;;;;;;7.78;4.70;;;;;;;;;;5033914;28;20033;-71
2021/04/25 11:05:41;;;;;;;15.30;4.95;;;;;;;;;;5034326;28;20458;-70
2021/04/25 11:08:16;;;;;;;5.30;3.95;;;;;;;;;;5034005;28;20038;-70
2021/04/25 11:10:54;;;;;;;9.13;3.53;;;;;;;;;;5033953;28;20441;-71
2021/04/25 11:13:35;;;;;;;7.13;4.40;;;;;;;;;;5033912;28;21057;-71
2021/04/25 11:16:02;;;;;;;;;;;;;;;;;;5034239;28;20045;-70
2021/04/25 11:18:47;;;;;;;9.27;5.18;;;;;;;;;;5017046;28;19939;-71
2021/04/25 11:21:29;;;;;;;7.20;5.35;;;;;;;;;;5033734;28;20084;-70
2021/04/25 11:24:16;;;;;;;6.70;4.57;;;;;;;;;;5033627;28;20175;-71
2021/04/25 11:26:43;;;;;;;8.73;4.05;;;;;;;;;;5023386;28;20049;-70
2021/04/25 11:29:16;;;;;;;8.25;6.57;;;;;;;;;;5033800;28;20120;-71
2021/04/25 11:34:14;;;;;;;;;;;;;;;;;;5076686;27;20023;-71
2021/04/25 11:36:40;;;;;;;8.32;5.50;;;;;;;;;;5137381;27;20392;-70
2021/04/25 11:39:07;;;;;;;7.68;5.72;;;;;;;;;;5118661;27;20027;-70
2021/04/25 11:41:33;;;;;;;7.70;5.50;;;;;;;;;;5136844;27;20015;-70
2021/04/25 11:43:59;;;;;;;4.72;4.13;;;36.30;23.30;;;;;;5136869;27;20023;-70
2021/04/25 11:46:33;;;;;;;12.93;4.03;;;36.30;23.30;;;;;;5118417;27;20034;-70
2021/04/25 11:49:03;;;;;;;4.40;3.15;;;36.40;21.70;;;;;;5118394;27;20063;-71
2021/04/25 11:51:29;;;;;;;4.15;3.30;;;36.70;22.00;;;;;;5135910;27;20042;-72
2021/04/25 11:53:56;;;;;;;4.85;3.55;;;36.90;21.30;;;;;;5118239;27;20034;-70
2021/04/25 11:56:30;;;;;;;5.03;3.30;;;36.70;21.40;;;;;;5118315;27;20110;-70
2021/04/25 11:59:10;;;;;;;5.15;3.30;;;36.60;22.30;;;;;;5136791;27;20031;-71
2021/04/25 12:01:37;;;;;;;4.10;3.05;;;37.10;22.20;;;;;;5136338;27;20075;-72
2021/04/25 12:04:04;;;;;;;4.70;3.20;;;37.60;22.20;;;;;;5118078;27;20400;-70
2021/04/25 12:06:49;;;;;;;6.38;2.92;;;37.70;22.10;;;;;;5136478;27;20023;-71
2021/04/25 12:09:16;;;;;;;7.07;2.67;;;37.90;20.80;;;;;;5136412;27;20028;-69
2021/04/25 12:11:43;;;;;;;2.80;2.53;;;37.50;23.00;;;;;;5136392;27;20062;-69
2021/04/25 12:14:19;;;;;;;6.78;5.07;;;37.60;21.90;;;;;;5136270;27;20023;-71
2021/04/25 12:16:45;;;;;;;13.82;7.53;;;38.10;21.50;;;;;;5136396;27;20034;-71
2021/04/25 12:19:22;;;;;;;9.95;6.20;;;38.30;21.00;;;;;;5136433;27;20027;-74
2021/04/25 12:21:48;;;;;;;4.68;4.00;;;38.80;21.60;;;;;;5136156;27;20035;-72
2021/04/25 12:24:21;;;;;;;7.45;5.10;;;38.50;20.50;;;;;;5136167;27;20027;-72
2021/04/25 12:26:47;;;;;;;8.43;4.82;;;38.90;21.20;;;;;;5136235;27;20059;-72
2021/04/25 12:29:13;;;;;;;5.38;3.85;;;38.80;20.80;;;;;;5117649;27;20353;-70
2021/04/25 12:31:43;;;;;;;15.50;6.10;;;38.30;20.80;;;;;;5135775;27;20027;-72
2021/04/25 12:34:14;;;;;;;6.10;4.80;;;38.70;21.20;;;;;;5135989;27;20035;-72
2021/04/25 12:36:51;;;;;;;6.30;4.78;;;37.90;20.50;;;;;;5117497;27;20034;-71
2021/04/25 12:39:17;;;;;;;4.80;4.13;;;38.30;20.90;;;;;;5135991;27;20027;-70
2021/04/25 12:41:46;;;;;;;5.35;4.32;;;38.40;21.00;;;;;;5135751;27;20031;-72
2021/04/25 12:44:13;;;;;;;7.57;5.20;;;38.00;22.10;;;;;;5135775;27;20027;-71
2021/04/25 12:46:39;;;;;;;6.35;4.18;;;38.10;21.20;;;;;;5135681;27;20023;-72
2021/04/25 12:49:11;;;;;;;6.18;4.15;;;38.60;21.00;;;;;;5136052;27;20019;-69
2021/04/25 12:51:43;;;;;;;6.65;3.85;;;38.10;21.00;;;;;;5135779;27;20027;-71
2021/04/25 12:54:12;;;;;;;6.63;4.68;;;39.20;20.90;;;;;;5135634;27;20092;-70